createdAt,value
2018-11-06T00:00:16.281Z,6.50
2018-11-06T00:02:56.914Z,6.50
2018-11-06T00:05:32.425Z,6.60
2018-11-06T00:08:07.325Z,6.70
2018-11-06T00:10:42.199Z,6.70
2018-11-06T00:13:20.686Z,6.70
2018-11-06T00:15:55.817Z,6.70
2018-11-06T00:18:30.896Z,6.60
2018-11-06T00:21:06.096Z,6.60
2018-11-06T00:23:41.137Z,6.50
2018-11-06T00:26:16.205Z,6.50
2018-11-06T00:28:51.361Z,6.50
2018-11-06T00:31:26.129Z,6.30
2018-11-06T00:34:01.593Z,6.20
2018-11-06T00:36:36.905Z,6.30
2018-11-06T00:39:12.353Z,6.20
2018-11-06T00:41:48.308Z,6.20
2018-11-06T00:44:23.447Z,6.10
2018-11-06T00:46:59.440Z,6.20
2018-11-06T00:49:34.232Z,6.30
2018-11-06T00:52:10.097Z,6.50
2018-11-06T00:54:44.968Z,6.60
2018-11-06T00:57:19.906Z,6.40
2018-11-06T00:59:54.786Z,6.60
2018-11-06T01:02:29.515Z,6.50
2018-11-06T01:05:05.841Z,6.50
2018-11-06T01:07:41.137Z,6.60
2018-11-06T01:10:16.108Z,6.50
2018-11-06T01:12:51.209Z,6.60
2018-11-06T01:15:26.657Z,6.60
2018-11-06T01:18:01.622Z,6.60
2018-11-06T01:20:37.194Z,6.50
2018-11-06T01:23:12.713Z,6.50
2018-11-06T01:25:48.202Z,6.20
2018-11-06T01:28:23.674Z,6.40
2018-11-06T01:30:58.804Z,6.40
2018-11-06T01:33:34.794Z,6.40
2018-11-06T01:36:09.693Z,6.40
2018-11-06T01:38:45.730Z,6.40
2018-11-06T01:41:20.566Z,6.10
2018-11-06T01:43:55.653Z,6.30
2018-11-06T01:46:30.730Z,6.30
2018-11-06T01:49:06.009Z,6.30
2018-11-06T01:51:41.405Z,6.40
2018-11-06T01:54:16.592Z,6.40
2018-11-06T01:56:51.948Z,6.40
2018-11-06T01:59:27.397Z,6.40
2018-11-06T02:02:02.276Z,6.50
2018-11-06T02:04:37.416Z,6.40
2018-11-06T02:07:12.854Z,6.10
2018-11-06T02:09:48.010Z,6.30
2018-11-06T02:12:22.934Z,6.40
2018-11-06T02:14:59.204Z,6.50
2018-11-06T02:17:34.364Z,6.50
2018-11-06T02:20:10.818Z,6.50
2018-11-06T02:22:46.528Z,6.50
2018-11-06T02:25:21.194Z,6.40
2018-11-06T02:27:56.066Z,6.40
2018-11-06T02:30:31.728Z,6.40
2018-11-06T02:33:06.705Z,6.50
2018-11-06T02:35:41.814Z,6.50
2018-11-06T02:38:16.654Z,6.50
2018-11-06T02:40:51.360Z,6.40
2018-11-06T02:43:26.502Z,6.40
2018-11-06T02:46:02.724Z,6.10
2018-11-06T02:48:37.994Z,6.30
2018-11-06T02:51:13.682Z,6.40
2018-11-06T02:53:49.536Z,6.40
2018-11-06T02:56:24.982Z,6.30
2018-11-06T02:58:59.918Z,6.40
2018-11-06T03:01:36.248Z,6.50
2018-11-06T03:04:10.920Z,6.50
2018-11-06T03:06:46.102Z,6.20
2018-11-06T03:09:20.932Z,6.30
2018-11-06T03:11:56.569Z,6.30
2018-11-06T03:14:31.706Z,6.30
2018-11-06T03:17:06.600Z,6.20
2018-11-06T03:19:41.569Z,6.10
2018-11-06T03:22:16.620Z,6.20
2018-11-06T03:24:51.538Z,6.20
2018-11-06T03:27:26.518Z,6.20
2018-11-06T03:30:01.830Z,6.00
2018-11-06T03:32:37.465Z,6.00
2018-11-06T03:35:13.021Z,6.10
2018-11-06T03:37:48.042Z,6.10
2018-11-06T03:40:23.082Z,6.10
2018-11-06T03:42:58.634Z,6.10
2018-11-06T03:45:33.663Z,6.10
2018-11-06T03:48:09.122Z,6.10
2018-11-06T03:50:45.211Z,6.10
2018-11-06T03:53:20.214Z,6.10
2018-11-06T03:55:55.642Z,6.10
2018-11-06T03:58:30.588Z,6.20
2018-11-06T04:01:05.725Z,6.20
2018-11-06T04:03:41.627Z,6.20
2018-11-06T04:06:16.635Z,6.10
2018-11-06T04:08:52.400Z,6.20
2018-11-06T04:11:28.030Z,6.20
2018-11-06T04:14:02.991Z,6.10
2018-11-06T04:16:38.786Z,6.00
2018-11-06T04:19:13.817Z,6.00
2018-11-06T04:21:49.704Z,6.10
2018-11-06T04:24:24.405Z,6.10
2018-11-06T04:27:00.068Z,6.10
2018-11-06T04:29:35.256Z,6.10
2018-11-06T04:32:10.882Z,6.00
2018-11-06T04:34:46.086Z,5.70
2018-11-06T04:37:21.634Z,5.90
2018-11-06T04:39:56.940Z,5.90
2018-11-06T04:42:31.817Z,5.90
2018-11-06T04:45:07.873Z,6.00
2018-11-06T04:47:43.315Z,6.00
2018-11-06T04:50:19.948Z,6.00
2018-11-06T04:52:55.116Z,6.00
2018-11-06T04:55:30.066Z,6.00
2018-11-06T04:58:04.813Z,5.90
2018-11-06T05:00:39.947Z,5.80
2018-11-06T05:03:14.997Z,5.90
2018-11-06T05:05:50.062Z,5.90
2018-11-06T05:08:25.844Z,6.00
2018-11-06T05:11:10.980Z,5.90
2018-11-06T05:13:46.112Z,5.90
2018-11-06T05:16:22.270Z,5.90
2018-11-06T05:18:57.505Z,5.90
2018-11-06T05:21:33.302Z,5.90
2018-11-06T05:24:08.309Z,6.00
2018-11-06T05:26:43.234Z,5.70
2018-11-06T05:29:17.963Z,5.80
2018-11-06T05:31:53.931Z,5.80
2018-11-06T05:34:28.839Z,5.80
2018-11-06T05:37:04.190Z,5.70
2018-11-06T05:39:50.686Z,5.80
2018-11-06T05:42:25.806Z,5.80
2018-11-06T05:45:01.392Z,5.80
2018-11-06T05:47:36.525Z,5.80
2018-11-06T05:50:11.716Z,5.60
2018-11-06T05:52:46.901Z,5.60
2018-11-06T05:55:21.881Z,5.60
2018-11-06T05:57:57.204Z,5.60
2018-11-06T06:00:31.969Z,5.60
2018-11-06T06:03:07.710Z,5.60
2018-11-06T06:05:42.755Z,5.70
2018-11-06T06:08:17.546Z,5.70
2018-11-06T06:10:53.120Z,5.70
2018-11-06T06:13:28.113Z,5.70
2018-11-06T06:16:03.149Z,5.50
2018-11-06T06:18:38.198Z,5.60
2018-11-06T06:21:13.326Z,5.60
2018-11-06T06:23:48.334Z,5.60
2018-11-06T06:26:23.114Z,5.60
2018-11-06T06:28:58.654Z,5.60
2018-11-06T06:31:34.312Z,5.60
2018-11-06T06:34:09.329Z,5.50
2018-11-06T06:36:44.405Z,5.60
2018-11-06T06:39:19.224Z,5.60
2018-11-06T06:41:54.259Z,5.70
2018-11-06T06:44:29.381Z,5.70
2018-11-06T06:47:04.594Z,5.80
2018-11-06T06:49:39.606Z,6.00
2018-11-06T06:52:14.308Z,6.30
2018-11-06T06:54:50.156Z,6.40
2018-11-06T06:57:25.080Z,6.70
2018-11-06T06:59:59.899Z,7.30
2018-11-06T07:02:34.833Z,7.50
2018-11-06T07:05:12.817Z,7.70
2018-11-06T07:07:48.057Z,7.80
2018-11-06T07:10:23.711Z,8.10
2018-11-06T07:12:59.241Z,8.20
2018-11-06T07:15:34.306Z,7.90
2018-11-06T07:18:09.173Z,8.20
2018-11-06T07:20:44.146Z,9.20
2018-11-06T07:23:18.842Z,10.00
2018-11-06T07:25:54.034Z,10.50
2018-11-06T07:28:28.798Z,11.20
2018-11-06T07:31:03.839Z,11.20
2018-11-06T07:33:39.416Z,10.40
2018-11-06T07:36:14.293Z,10.30
2018-11-06T07:38:49.326Z,9.60
2018-11-06T07:41:24.545Z,9.30
2018-11-06T07:43:59.547Z,9.00
2018-11-06T07:46:35.034Z,9.00
2018-11-06T07:49:10.457Z,9.10
2018-11-06T07:51:45.102Z,9.00
2018-11-06T07:54:19.972Z,9.30
2018-11-06T07:56:55.242Z,9.40
2018-11-06T07:59:30.446Z,9.00
2018-11-06T08:02:06.894Z,8.80
2018-11-06T08:04:41.546Z,9.00
2018-11-06T08:07:16.593Z,8.90
2018-11-06T08:09:51.624Z,9.30
2018-11-06T08:12:26.515Z,9.50
2018-11-06T08:15:01.795Z,9.70
2018-11-06T08:17:37.454Z,9.80
2018-11-06T08:20:13.806Z,9.50
2018-11-06T08:22:49.049Z,9.50
2018-11-06T08:25:24.172Z,9.60
2018-11-06T08:27:59.407Z,9.80
2018-11-06T08:30:34.362Z,9.70
2018-11-06T08:33:09.338Z,9.50
2018-11-06T08:35:44.141Z,9.70
2018-11-06T08:38:18.930Z,9.80
2018-11-06T08:40:53.965Z,9.80
2018-11-06T08:43:29.347Z,10.00
2018-11-06T08:46:04.046Z,10.30
2018-11-06T08:48:39.495Z,10.50
2018-11-06T08:51:14.794Z,10.50
2018-11-06T08:53:50.021Z,10.30
2018-11-06T08:56:25.499Z,10.50
2018-11-06T08:59:00.756Z,10.50
2018-11-06T09:01:36.201Z,10.60
2018-11-06T09:04:11.470Z,10.80
2018-11-06T09:06:46.443Z,10.90
2018-11-06T09:09:21.531Z,11.00
2018-11-06T09:11:56.601Z,11.10
2018-11-06T09:14:31.756Z,11.20
2018-11-06T09:17:07.305Z,11.30
2018-11-06T09:19:42.429Z,11.20
2018-11-06T09:22:17.898Z,11.20
2018-11-06T09:24:53.620Z,11.30
2018-11-06T09:27:28.541Z,11.50
2018-11-06T09:30:03.544Z,11.80
2018-11-06T09:32:38.750Z,12.10
2018-11-06T09:35:14.818Z,12.40
2018-11-06T09:37:49.730Z,12.60
2018-11-06T09:40:24.820Z,12.70
2018-11-06T09:43:01.024Z,12.40
2018-11-06T09:45:36.389Z,12.40
2018-11-06T09:48:12.312Z,12.50
2018-11-06T09:50:47.146Z,12.40
2018-11-06T09:53:22.279Z,12.70
2018-11-06T09:55:56.980Z,12.90
2018-11-06T09:58:32.311Z,13.10
2018-11-06T10:01:07.187Z,12.70
2018-11-06T10:03:42.244Z,12.80
2018-11-06T10:06:18.256Z,12.70
2018-11-06T10:08:54.039Z,13.00
2018-11-06T10:11:29.171Z,13.00
2018-11-06T10:14:04.841Z,13.40
2018-11-06T10:16:39.970Z,13.80
2018-11-06T10:19:14.786Z,14.10
2018-11-06T10:21:49.650Z,14.50
2018-11-06T10:24:25.425Z,15.60
2018-11-06T10:27:00.225Z,14.50
2018-11-06T10:29:35.381Z,14.10
2018-11-06T10:32:10.086Z,13.60
2018-11-06T10:34:45.546Z,13.60
2018-11-06T10:37:20.220Z,13.20
2018-11-06T10:39:54.936Z,13.40
2018-11-06T10:42:29.776Z,13.60
2018-11-06T10:45:05.772Z,13.60
2018-11-06T10:47:40.606Z,13.70
2018-11-06T10:50:16.054Z,13.70
2018-11-06T10:52:51.102Z,13.70
2018-11-06T10:55:25.974Z,13.70
2018-11-06T10:58:01.496Z,13.80
2018-11-06T11:00:42.004Z,13.80
2018-11-06T11:03:22.963Z,13.80
2018-11-06T11:05:57.908Z,13.30
2018-11-06T11:08:32.641Z,13.50
2018-11-06T11:11:07.678Z,13.30
2018-11-06T11:13:42.341Z,13.50
2018-11-06T11:16:17.295Z,13.70
2018-11-06T11:18:52.018Z,13.80
2018-11-06T11:21:26.889Z,13.70
2018-11-06T11:24:01.863Z,13.40
2018-11-06T11:26:37.092Z,13.70
2018-11-06T11:29:12.031Z,13.80
2018-11-06T11:31:47.038Z,13.90
2018-11-06T11:34:21.600Z,14.10
2018-11-06T11:36:56.327Z,14.20
2018-11-06T11:39:31.430Z,14.40
2018-11-06T11:42:06.755Z,14.50
2018-11-06T11:44:41.487Z,14.50
2018-11-06T11:47:16.526Z,14.50
2018-11-06T11:49:51.348Z,14.60
2018-11-06T11:52:26.611Z,14.60
2018-11-06T11:55:01.979Z,14.60
2018-11-06T11:57:37.206Z,14.70
2018-11-06T12:00:14.036Z,14.60
2018-11-06T12:02:49.470Z,14.80
2018-11-06T12:05:24.141Z,14.80
2018-11-06T12:07:59.589Z,14.80
2018-11-06T12:10:35.349Z,14.90
2018-11-06T12:13:10.218Z,15.20
2018-11-06T12:15:45.008Z,15.20
2018-11-06T12:18:20.306Z,15.00
2018-11-06T12:20:55.970Z,15.20
2018-11-06T12:23:30.727Z,15.00
2018-11-06T12:26:06.050Z,15.10
2018-11-06T12:28:40.830Z,14.80
2018-11-06T12:31:15.886Z,14.90
2018-11-06T12:33:50.790Z,14.80
2018-11-06T12:36:25.883Z,14.80
2018-11-06T12:39:00.907Z,14.70
2018-11-06T12:41:36.346Z,14.40
2018-11-06T12:44:11.434Z,14.60
2018-11-06T12:46:46.307Z,14.60
2018-11-06T12:49:22.007Z,14.40
2018-11-06T12:51:56.954Z,14.40
2018-11-06T12:54:31.758Z,14.40
2018-11-06T12:57:06.508Z,14.40
2018-11-06T12:59:41.743Z,14.30
2018-11-06T13:02:16.690Z,14.40
2018-11-06T13:04:51.414Z,14.30
2018-11-06T13:07:26.432Z,14.30
2018-11-06T13:10:01.431Z,14.40
2018-11-06T13:12:36.607Z,14.30
2018-11-06T13:15:12.004Z,14.20
2018-11-06T13:17:46.837Z,14.20
2018-11-06T13:20:22.655Z,14.30
2018-11-06T13:22:57.349Z,14.20
2018-11-06T13:25:33.028Z,14.10
2018-11-06T13:28:08.178Z,14.00
2018-11-06T13:30:43.209Z,14.10
2018-11-06T13:33:18.336Z,13.90
2018-11-06T13:35:53.976Z,14.20
2018-11-06T13:38:29.098Z,14.20
2018-11-06T13:41:04.649Z,14.00
2018-11-06T13:43:39.706Z,14.10
2018-11-06T13:46:14.462Z,14.20
2018-11-06T13:48:49.442Z,14.20
2018-11-06T13:51:24.191Z,14.30
2018-11-06T13:53:59.032Z,14.40
2018-11-06T13:56:33.755Z,14.40
2018-11-06T13:59:08.609Z,14.30
2018-11-06T14:01:43.852Z,14.20
2018-11-06T14:04:18.704Z,14.20
2018-11-06T14:06:53.717Z,14.30
2018-11-06T14:09:28.561Z,14.30
2018-11-06T14:12:03.679Z,14.20
2018-11-06T14:14:38.405Z,14.10
2018-11-06T14:17:13.082Z,14.10
2018-11-06T14:19:47.922Z,14.10
2018-11-06T14:22:22.632Z,14.00
2018-11-06T14:24:57.432Z,14.00
2018-11-06T14:27:32.187Z,13.90
2018-11-06T14:30:10.859Z,13.80
2018-11-06T14:32:46.394Z,13.80
2018-11-06T14:35:21.157Z,13.70
2018-11-06T14:37:55.976Z,13.70
2018-11-06T14:40:30.821Z,13.70
2018-11-06T14:43:06.260Z,13.60
2018-11-06T14:45:41.487Z,13.60
2018-11-06T14:48:16.851Z,13.50
2018-11-06T14:50:51.766Z,13.40
2018-11-06T14:53:26.586Z,13.40
2018-11-06T14:56:01.496Z,13.40
2018-11-06T14:58:36.457Z,13.30
2018-11-06T15:01:11.795Z,13.20
2018-11-06T15:03:47.053Z,13.10
2018-11-06T15:06:22.574Z,13.10
2018-11-06T15:08:58.035Z,13.00
2018-11-06T15:11:32.837Z,12.90
2018-11-06T15:14:07.870Z,12.80
2018-11-06T15:16:43.540Z,12.80
2018-11-06T15:19:18.472Z,12.70
2018-11-06T15:21:53.390Z,12.60
2018-11-06T15:24:28.130Z,12.50
2018-11-06T15:27:03.090Z,12.50
2018-11-06T15:29:38.448Z,12.40
2018-11-06T15:32:13.109Z,12.40
2018-11-06T15:34:48.440Z,12.30
2018-11-06T15:37:23.741Z,12.20
2018-11-06T15:39:58.690Z,11.80
2018-11-06T15:42:33.497Z,11.70
2018-11-06T15:45:09.817Z,11.60
2018-11-06T15:47:45.198Z,11.70
2018-11-06T15:50:21.191Z,11.70
2018-11-06T15:52:57.351Z,11.60
2018-11-06T15:55:32.154Z,11.60
2018-11-06T15:58:07.263Z,11.60
2018-11-06T16:00:42.050Z,11.70
2018-11-06T16:03:17.603Z,11.70
2018-11-06T16:05:52.822Z,11.80
2018-11-06T16:08:27.731Z,11.70
2018-11-06T16:11:03.058Z,11.70
2018-11-06T16:13:37.785Z,11.70
2018-11-06T16:16:13.956Z,11.70
2018-11-06T16:18:48.630Z,11.70
2018-11-06T16:21:23.728Z,11.70
2018-11-06T16:23:59.271Z,11.70
2018-11-06T16:26:34.490Z,11.70
2018-11-06T16:29:09.196Z,11.60
2018-11-06T16:31:44.324Z,11.60
2018-11-06T16:34:19.060Z,11.60
2018-11-06T16:36:54.118Z,11.60
2018-11-06T16:39:29.019Z,11.60
2018-11-06T16:42:04.161Z,11.60
2018-11-06T16:44:39.088Z,11.50
2018-11-06T16:47:14.171Z,11.50
2018-11-06T16:49:49.248Z,11.50
2018-11-06T16:52:24.937Z,11.50
2018-11-06T16:54:59.678Z,11.50
2018-11-06T16:57:42.507Z,11.50
2018-11-06T17:00:19.895Z,11.50
2018-11-06T17:02:54.809Z,11.50
2018-11-06T17:05:29.817Z,11.50
2018-11-06T17:08:05.498Z,11.50
2018-11-06T17:10:40.926Z,11.50
2018-11-06T17:13:16.752Z,11.50
2018-11-06T17:15:51.491Z,11.50
2018-11-06T17:18:26.530Z,11.40
2018-11-06T17:21:01.599Z,11.40
2018-11-06T17:23:37.253Z,11.40
2018-11-06T17:26:12.182Z,11.40
2018-11-06T17:28:46.968Z,11.40
2018-11-06T17:31:21.689Z,11.40
2018-11-06T17:33:57.393Z,11.40
2018-11-06T17:36:32.405Z,11.30
2018-11-06T17:39:10.755Z,11.30
2018-11-06T17:41:46.170Z,11.30
2018-11-06T17:44:21.010Z,11.30
2018-11-06T17:46:56.053Z,11.30
2018-11-06T17:49:31.167Z,11.30
2018-11-06T17:52:07.018Z,11.20
2018-11-06T17:54:42.265Z,11.20
2018-11-06T17:57:17.306Z,11.20
2018-11-06T17:59:52.104Z,11.00
2018-11-06T18:02:27.755Z,11.00
2018-11-06T18:05:02.938Z,11.00
2018-11-06T18:07:38.314Z,11.10
2018-11-06T18:10:14.633Z,11.10
2018-11-06T18:12:49.450Z,11.20
2018-11-06T18:15:24.548Z,11.10
2018-11-06T18:17:59.400Z,11.10
2018-11-06T18:20:34.399Z,11.10
2018-11-06T18:23:09.337Z,11.10
2018-11-06T18:25:44.382Z,11.00
2018-11-06T18:28:19.462Z,11.10
2018-11-06T18:30:54.381Z,11.10
2018-11-06T18:33:29.413Z,11.10
2018-11-06T18:36:04.712Z,11.00
2018-11-06T18:38:39.517Z,10.90
2018-11-06T18:41:14.551Z,10.90
2018-11-06T18:43:49.525Z,10.90
2018-11-06T18:46:24.666Z,11.00
2018-11-06T18:48:59.455Z,10.90
2018-11-06T18:51:35.065Z,10.90
2018-11-06T18:54:10.673Z,10.90
2018-11-06T18:56:46.432Z,10.90
2018-11-06T18:59:21.464Z,10.80
2018-11-06T19:01:56.100Z,10.80
2018-11-06T19:04:31.010Z,10.80
2018-11-06T19:07:06.903Z,10.70
2018-11-06T19:09:41.872Z,10.70
2018-11-06T19:12:17.464Z,10.70
2018-11-06T19:14:52.275Z,10.70
2018-11-06T19:17:27.297Z,10.70
2018-11-06T19:20:02.083Z,10.80
2018-11-06T19:22:37.067Z,10.80
2018-11-06T19:25:13.050Z,10.70
2018-11-06T19:27:47.869Z,10.70
2018-11-06T19:30:22.790Z,10.70
2018-11-06T19:32:57.987Z,10.60
2018-11-06T19:35:32.887Z,10.60
2018-11-06T19:38:07.605Z,10.60
2018-11-06T19:40:42.449Z,10.60
2018-11-06T19:43:17.632Z,10.60
2018-11-06T19:45:52.501Z,10.60
2018-11-06T19:48:27.509Z,10.50
2018-11-06T19:51:03.010Z,10.40
2018-11-06T19:53:38.572Z,10.40
2018-11-06T19:56:13.571Z,10.50
2018-11-06T19:58:48.280Z,10.50
2018-11-06T20:01:23.274Z,10.40
2018-11-06T20:03:58.136Z,10.40
2018-11-06T20:06:33.067Z,10.40
2018-11-06T20:09:09.615Z,10.40
2018-11-06T20:11:44.543Z,10.40
2018-11-06T20:14:19.444Z,10.40
2018-11-06T20:16:54.345Z,10.20
2018-11-06T20:19:29.248Z,10.10
2018-11-06T20:22:04.996Z,10.10
2018-11-06T20:24:40.507Z,10.10
2018-11-06T20:27:15.298Z,10.20
2018-11-06T20:29:50.543Z,10.00
2018-11-06T20:32:25.591Z,9.70
2018-11-06T20:35:00.427Z,9.70
2018-11-06T20:37:35.559Z,9.90
2018-11-06T20:40:16.701Z,9.90
2018-11-06T20:42:52.235Z,9.90
2018-11-06T20:45:27.154Z,9.90
2018-11-06T20:48:02.023Z,9.80
2018-11-06T20:50:36.954Z,9.80
2018-11-06T20:53:11.966Z,9.80
2018-11-06T20:55:47.809Z,9.80
2018-11-06T20:58:22.731Z,9.80
2018-11-06T21:00:57.621Z,9.70
2018-11-06T21:03:32.891Z,9.70
2018-11-06T21:06:07.923Z,9.70
2018-11-06T21:08:42.738Z,9.70
2018-11-06T21:11:17.659Z,9.30
2018-11-06T21:13:53.303Z,9.40
2018-11-06T21:16:28.734Z,9.50
2018-11-06T21:19:03.536Z,9.40
2018-11-06T21:21:38.362Z,9.40
2018-11-06T21:24:13.449Z,9.40
2018-11-06T21:26:48.627Z,9.40
2018-11-06T21:29:24.269Z,9.40
2018-11-06T21:31:59.369Z,9.50
2018-11-06T21:34:34.346Z,9.40
2018-11-06T21:37:09.236Z,9.20
2018-11-06T21:39:44.049Z,9.20
2018-11-06T21:42:18.850Z,9.30
2018-11-06T21:44:54.378Z,9.20
2018-11-06T21:47:29.290Z,9.30
2018-11-06T21:50:04.902Z,9.20
2018-11-06T21:52:40.370Z,9.30
2018-11-06T21:55:16.453Z,9.20
2018-11-06T21:57:51.230Z,9.30
2018-11-06T22:00:26.056Z,9.20
2018-11-06T22:03:01.073Z,9.20
2018-11-06T22:05:35.798Z,9.20
2018-11-06T22:08:10.583Z,9.20
2018-11-06T22:10:46.089Z,9.20
2018-11-06T22:13:20.842Z,9.20
2018-11-06T22:15:55.957Z,9.20
2018-11-06T22:18:30.921Z,9.00
2018-11-06T22:21:05.990Z,9.00
2018-11-06T22:23:40.831Z,9.00
2018-11-06T22:26:16.387Z,9.00
2018-11-06T22:28:52.402Z,8.90
2018-11-06T22:31:27.327Z,9.00
2018-11-06T22:34:02.385Z,9.00
2018-11-06T22:36:37.463Z,8.90
2018-11-06T22:39:13.108Z,8.80
2018-11-06T22:41:48.048Z,8.80
2018-11-06T22:44:22.773Z,8.80
2018-11-06T22:46:58.346Z,8.70
2018-11-06T22:49:32.969Z,8.80
2018-11-06T22:52:07.308Z,8.70
2018-11-06T22:54:41.458Z,8.70
2018-11-06T22:57:15.652Z,8.60
2018-11-06T22:59:49.766Z,8.60
2018-11-06T23:02:24.217Z,8.50
2018-11-06T23:04:58.202Z,8.50
2018-11-06T23:07:37.674Z,8.50
2018-11-06T23:10:12.047Z,8.40
2018-11-06T23:12:46.180Z,8.40
2018-11-06T23:15:20.041Z,8.40
2018-11-06T23:17:54.281Z,8.30
2018-11-06T23:20:28.355Z,8.20
2018-11-06T23:23:03.360Z,8.20
2018-11-06T23:25:37.335Z,8.10
2018-11-06T23:28:11.820Z,8.10
2018-11-06T23:30:45.808Z,8.10
2018-11-06T23:33:19.860Z,8.10
2018-11-06T23:35:53.911Z,8.10
2018-11-06T23:38:27.985Z,8.10
2018-11-06T23:41:02.077Z,8.10
2018-11-06T23:43:36.088Z,7.90
2018-11-06T23:46:10.301Z,7.90
2018-11-06T23:48:44.319Z,7.90
2018-11-06T23:51:18.298Z,7.80
2018-11-06T23:53:53.239Z,7.70
2018-11-06T23:56:27.344Z,7.40
2018-11-06T23:59:01.763Z,7.50
